createdAt,value
2023-05-24T00:00:41.148Z,10.60
2023-05-24T00:01:43.075Z,10.60
2023-05-24T00:02:44.943Z,10.60
2023-05-24T00:03:46.918Z,10.60
2023-05-24T00:04:49.446Z,10.60
2023-05-24T00:05:52.425Z,10.50
2023-05-24T00:06:54.991Z,10.50
2023-05-24T00:07:57.412Z,10.50
2023-05-24T00:08:59.207Z,10.50
2023-05-24T00:10:01.096Z,10.50
2023-05-24T00:11:02.913Z,10.50
2023-05-24T00:12:05.026Z,10.50
2023-05-24T00:13:06.956Z,10.50
2023-05-24T00:14:08.857Z,10.50
2023-05-24T00:15:10.845Z,10.50
2023-05-24T00:16:12.866Z,10.50
2023-05-24T00:17:15.036Z,10.50
2023-05-24T00:18:19.539Z,10.50
2023-05-24T00:19:22.478Z,10.50
2023-05-24T00:20:24.460Z,10.50
2023-05-24T00:21:26.322Z,10.50
2023-05-24T00:22:28.149Z,10.50
2023-05-24T00:23:29.942Z,10.40
2023-05-24T00:24:31.747Z,10.40
2023-05-24T00:25:33.524Z,10.40
2023-05-24T00:26:35.394Z,10.40
2023-05-24T00:27:37.568Z,10.40
2023-05-24T00:28:39.492Z,10.40
2023-05-24T00:29:41.432Z,10.40
2023-05-24T00:30:43.727Z,10.40
2023-05-24T00:31:45.820Z,10.40
2023-05-24T00:32:47.641Z,10.40
2023-05-24T00:33:49.439Z,10.40
2023-05-24T00:34:51.291Z,10.30
2023-05-24T00:35:56.357Z,10.40
2023-05-24T00:36:58.674Z,10.30
2023-05-24T00:38:00.574Z,10.30
2023-05-24T00:39:02.425Z,10.30
2023-05-24T00:40:05.005Z,10.30
2023-05-24T00:41:06.804Z,10.30
2023-05-24T00:42:08.625Z,10.40
2023-05-24T00:43:10.443Z,10.40
2023-05-24T00:44:12.338Z,10.30
2023-05-24T00:45:14.326Z,10.40
2023-05-24T00:46:24.845Z,10.30
2023-05-24T00:47:26.714Z,10.30
2023-05-24T00:48:28.866Z,10.30
2023-05-24T00:49:31.455Z,10.30
2023-05-24T00:50:33.861Z,10.30
2023-05-24T00:51:37.059Z,10.40
2023-05-24T00:52:40.711Z,10.40
2023-05-24T00:53:45.970Z,10.30
2023-05-24T00:54:53.737Z,10.30
2023-05-24T00:55:55.719Z,10.30
2023-05-24T00:56:57.758Z,10.20
2023-05-24T00:58:00.097Z,10.20
2023-05-24T00:59:01.981Z,10.20
2023-05-24T01:00:05.521Z,10.10
2023-05-24T01:01:08.309Z,10.10
2023-05-24T01:02:10.491Z,10.10
2023-05-24T01:03:12.379Z,10.10
2023-05-24T01:04:14.533Z,10.10
2023-05-24T01:05:17.465Z,10.20
2023-05-24T01:06:19.752Z,10.10
2023-05-24T01:07:26.777Z,10.10
2023-05-24T01:08:40.506Z,10.10
2023-05-24T01:09:59.436Z,10.10
2023-05-24T01:11:46.055Z,10.10
2023-05-24T01:12:57.447Z,10.00
2023-05-24T01:14:17.315Z,10.00
2023-05-24T01:15:43.942Z,10.00
2023-05-24T01:16:53.576Z,10.00
2023-05-24T01:18:16.178Z,10.00
2023-05-24T01:19:59.977Z,10.00
2023-05-24T01:21:26.509Z,10.00
2023-05-24T01:22:40.130Z,10.00
2023-05-24T01:24:25.510Z,10.00
2023-05-24T01:25:48.448Z,10.00
2023-05-24T01:27:08.200Z,10.00
2023-05-24T01:28:12.193Z,9.90
2023-05-24T01:29:14.784Z,9.90
2023-05-24T01:30:17.477Z,9.90
2023-05-24T01:31:20.270Z,9.90
2023-05-24T01:32:22.486Z,9.90
2023-05-24T01:33:25.034Z,9.80
2023-05-24T01:34:27.064Z,9.80
2023-05-24T01:35:28.851Z,9.80
2023-05-24T01:36:30.831Z,9.80
2023-05-24T01:37:32.659Z,9.80
2023-05-24T01:38:34.422Z,9.70
2023-05-24T01:39:36.304Z,9.70
2023-05-24T01:40:40.508Z,9.70
2023-05-24T01:42:23.115Z,9.70
2023-05-24T01:43:35.584Z,9.80
2023-05-24T01:44:56.032Z,9.70
2023-05-24T01:46:25.389Z,9.70
2023-05-24T01:47:51.759Z,9.70
2023-05-24T01:49:11.130Z,9.70
2023-05-24T01:50:25.943Z,9.70
2023-05-24T01:51:34.256Z,9.70
2023-05-24T01:52:36.281Z,9.60
2023-05-24T01:53:47.033Z,9.60
2023-05-24T01:54:52.625Z,9.60
2023-05-24T01:55:57.255Z,9.60
2023-05-24T01:56:59.746Z,9.50
2023-05-24T01:58:04.597Z,9.60
2023-05-24T01:59:07.200Z,9.60
2023-05-24T02:00:10.785Z,9.60
2023-05-24T02:01:14.201Z,9.60
2023-05-24T02:02:16.583Z,9.60
2023-05-24T02:03:18.778Z,9.50
2023-05-24T02:04:20.571Z,9.50
2023-05-24T02:05:22.327Z,9.50
2023-05-24T02:06:24.216Z,9.50
2023-05-24T02:07:26.761Z,9.50
2023-05-24T02:08:28.587Z,9.50
2023-05-24T02:09:30.427Z,9.50
2023-05-24T02:10:32.280Z,9.50
2023-05-24T02:11:34.149Z,9.50
2023-05-24T02:12:35.988Z,9.50
2023-05-24T02:13:37.777Z,9.50
2023-05-24T02:14:39.635Z,9.40
2023-05-24T02:15:42.004Z,9.40
2023-05-24T02:16:46.957Z,9.40
2023-05-24T02:17:49.046Z,9.40
2023-05-24T02:18:50.862Z,9.40
2023-05-24T02:19:53.147Z,9.40
2023-05-24T02:20:54.959Z,9.50
2023-05-24T02:21:56.801Z,9.40
2023-05-24T02:22:58.860Z,9.40
2023-05-24T02:24:00.775Z,9.40
2023-05-24T02:25:02.733Z,9.40
2023-05-24T02:26:04.616Z,9.40
2023-05-24T02:27:06.707Z,9.40
2023-05-24T02:28:08.561Z,9.40
2023-05-24T02:29:10.550Z,9.30
2023-05-24T02:30:13.030Z,9.30
2023-05-24T02:31:15.427Z,9.30
2023-05-24T02:32:17.317Z,9.30
2023-05-24T02:33:19.158Z,9.30
2023-05-24T02:34:21.085Z,9.40
2023-05-24T02:35:22.878Z,9.30
2023-05-24T02:36:24.851Z,9.30
2023-05-24T02:37:26.671Z,9.30
2023-05-24T02:38:28.477Z,9.30
2023-05-24T02:39:30.498Z,9.30
2023-05-24T02:40:32.485Z,9.30
2023-05-24T02:41:34.326Z,9.30
2023-05-24T02:42:36.267Z,9.30
2023-05-24T02:43:38.054Z,9.40
2023-05-24T02:44:39.897Z,9.40
2023-05-24T02:45:41.658Z,9.40
2023-05-24T02:46:43.541Z,9.40
2023-05-24T02:47:46.714Z,9.40
2023-05-24T02:48:49.724Z,9.40
2023-05-24T02:49:51.683Z,9.40
2023-05-24T02:50:53.561Z,9.40
2023-05-24T02:51:55.434Z,9.40
2023-05-24T02:52:57.228Z,9.40
2023-05-24T02:53:59.182Z,9.40
2023-05-24T02:55:01.010Z,9.40
2023-05-24T02:56:02.800Z,9.40
2023-05-24T02:57:06.553Z,9.40
2023-05-24T02:58:08.901Z,9.30
2023-05-24T02:59:11.351Z,9.30
2023-05-24T03:00:14.274Z,9.30
2023-05-24T03:01:16.171Z,9.30
2023-05-24T03:02:19.566Z,9.30
2023-05-24T03:03:21.693Z,9.20
2023-05-24T03:04:23.608Z,9.20
2023-05-24T03:05:25.485Z,9.10
2023-05-24T03:06:27.280Z,9.10
2023-05-24T03:07:29.091Z,9.10
2023-05-24T03:08:31.133Z,9.10
2023-05-24T03:09:32.962Z,9.10
2023-05-24T03:10:34.886Z,9.10
2023-05-24T03:11:36.671Z,9.10
2023-05-24T03:12:38.537Z,9.10
2023-05-24T03:13:40.601Z,9.10
2023-05-24T03:14:42.418Z,9.10
2023-05-24T03:15:44.192Z,9.10
2023-05-24T03:16:46.122Z,9.00
2023-05-24T03:17:47.986Z,9.00
2023-05-24T03:18:55.327Z,9.00
2023-05-24T03:19:57.147Z,9.00
2023-05-24T03:20:59.004Z,9.00
2023-05-24T03:22:00.836Z,9.00
2023-05-24T03:23:02.794Z,9.00
2023-05-24T03:24:04.704Z,9.00
2023-05-24T03:25:08.684Z,9.00
2023-05-24T03:26:10.481Z,9.00
2023-05-24T03:27:12.295Z,9.00
2023-05-24T03:28:15.130Z,9.00
2023-05-24T03:29:16.959Z,9.00
2023-05-24T03:30:18.857Z,9.00
2023-05-24T03:31:20.985Z,9.00
2023-05-24T03:32:22.937Z,9.00
2023-05-24T03:33:24.743Z,8.90
2023-05-24T03:34:26.511Z,9.00
2023-05-24T03:35:28.399Z,9.00
2023-05-24T03:36:30.195Z,8.90
2023-05-24T03:37:32.004Z,8.90
2023-05-24T03:38:33.852Z,9.00
2023-05-24T03:39:35.680Z,9.00
2023-05-24T03:40:38.494Z,8.90
2023-05-24T03:41:40.328Z,8.90
2023-05-24T03:42:42.143Z,9.00
2023-05-24T03:43:43.952Z,9.00
2023-05-24T03:44:45.841Z,9.00
2023-05-24T03:45:48.103Z,9.00
2023-05-24T03:46:49.996Z,9.00
2023-05-24T03:47:51.825Z,9.00
2023-05-24T03:48:53.753Z,9.00
2023-05-24T03:49:55.674Z,9.00
2023-05-24T03:50:57.453Z,9.00
2023-05-24T03:51:59.280Z,9.00
2023-05-24T03:53:01.124Z,9.00
2023-05-24T03:54:03.069Z,9.00
2023-05-24T03:55:05.706Z,8.90
2023-05-24T03:56:07.621Z,8.90
2023-05-24T03:57:09.442Z,8.90
2023-05-24T03:58:12.685Z,8.90
2023-05-24T03:59:14.477Z,8.80
2023-05-24T04:00:16.450Z,8.80
2023-05-24T04:01:32.124Z,8.90
2023-05-24T04:02:34.944Z,8.80
2023-05-24T04:03:36.902Z,8.90
2023-05-24T04:04:38.708Z,8.90
2023-05-24T04:05:40.575Z,8.90
2023-05-24T04:06:42.392Z,8.90
2023-05-24T04:07:45.377Z,8.80
2023-05-24T04:08:47.782Z,8.80
2023-05-24T04:09:49.561Z,8.80
2023-05-24T04:10:51.430Z,8.80
2023-05-24T04:11:53.244Z,8.80
2023-05-24T04:12:57.099Z,8.80
2023-05-24T04:14:00.706Z,8.80
2023-05-24T04:15:03.319Z,8.90
2023-05-24T04:16:05.658Z,8.90
2023-05-24T04:17:07.933Z,8.90
2023-05-24T04:18:10.189Z,8.90
2023-05-24T04:19:12.225Z,8.90
2023-05-24T04:20:14.271Z,8.90
2023-05-24T04:21:16.106Z,9.00
2023-05-24T04:22:20.823Z,9.00
2023-05-24T04:23:22.646Z,9.00
2023-05-24T04:24:24.546Z,9.10
2023-05-24T04:25:27.552Z,9.10
2023-05-24T04:26:29.857Z,9.10
2023-05-24T04:27:32.458Z,9.10
2023-05-24T04:28:34.323Z,9.10
2023-05-24T04:29:36.230Z,9.00
2023-05-24T04:30:38.453Z,9.00
2023-05-24T04:31:44.926Z,9.00
2023-05-24T04:32:47.411Z,9.00
2023-05-24T04:33:50.163Z,9.00
2023-05-24T04:34:52.548Z,9.00
2023-05-24T04:35:54.340Z,9.00
2023-05-24T04:36:56.430Z,9.00
2023-05-24T04:37:59.718Z,9.00
2023-05-24T04:39:04.827Z,8.90
2023-05-24T04:40:08.123Z,8.90
2023-05-24T04:41:10.628Z,9.00
2023-05-24T04:42:13.222Z,9.00
2023-05-24T04:43:15.005Z,9.00
2023-05-24T04:44:17.422Z,8.90
2023-05-24T04:45:19.246Z,9.00
2023-05-24T04:46:21.108Z,9.00
2023-05-24T04:47:23.202Z,9.10
2023-05-24T04:48:25.149Z,9.10
2023-05-24T04:49:27.155Z,9.10
2023-05-24T04:50:29.104Z,9.10
2023-05-24T04:51:30.981Z,9.10
2023-05-24T04:52:36.386Z,9.10
2023-05-24T04:53:38.639Z,9.10
2023-05-24T04:54:40.464Z,9.20
2023-05-24T04:55:42.984Z,9.20
2023-05-24T04:56:44.758Z,9.20
2023-05-24T04:57:46.604Z,9.20
2023-05-24T04:58:48.392Z,9.20
2023-05-24T04:59:50.409Z,9.20
2023-05-24T05:00:52.287Z,9.20
2023-05-24T05:01:54.439Z,9.20
2023-05-24T05:02:56.397Z,9.20
2023-05-24T05:03:59.143Z,9.20
2023-05-24T05:05:01.230Z,9.20
2023-05-24T05:06:03.150Z,9.20
2023-05-24T05:07:05.157Z,9.20
2023-05-24T05:08:06.962Z,9.30
2023-05-24T05:09:10.384Z,9.30
2023-05-24T05:10:12.226Z,9.30
2023-05-24T05:11:15.128Z,9.30
2023-05-24T05:12:17.102Z,9.30
2023-05-24T05:13:18.874Z,9.30
2023-05-24T05:14:20.775Z,9.30
2023-05-24T05:15:24.173Z,9.30
2023-05-24T05:16:25.995Z,9.30
2023-05-24T05:17:27.834Z,9.30
2023-05-24T05:18:29.632Z,9.30
2023-05-24T05:19:31.467Z,9.30
2023-05-24T05:20:33.347Z,9.30
2023-05-24T05:21:35.177Z,9.30
2023-05-24T05:22:36.977Z,9.30
2023-05-24T05:23:39.854Z,9.30
2023-05-24T05:24:41.652Z,9.30
2023-05-24T05:25:43.560Z,9.30
2023-05-24T05:26:45.646Z,9.30
2023-05-24T05:27:47.463Z,9.30
2023-05-24T05:28:49.358Z,9.30
2023-05-24T05:29:51.229Z,9.20
2023-05-24T05:30:53.475Z,9.30
2023-05-24T05:31:55.829Z,9.30
2023-05-24T05:32:57.940Z,9.30
2023-05-24T05:33:59.980Z,9.30
2023-05-24T05:35:01.772Z,9.30
2023-05-24T05:36:04.113Z,9.30
2023-05-24T05:37:05.995Z,9.30
2023-05-24T05:38:07.784Z,9.40
2023-05-24T05:39:10.058Z,9.40
2023-05-24T05:40:12.435Z,9.30
2023-05-24T05:41:14.253Z,9.30
2023-05-24T05:42:16.077Z,9.30
2023-05-24T05:43:17.866Z,9.30
2023-05-24T05:44:20.446Z,9.30
2023-05-24T05:45:22.257Z,9.30
2023-05-24T05:46:24.115Z,9.40
2023-05-24T05:47:26.100Z,9.40
2023-05-24T05:48:27.992Z,9.50
2023-05-24T05:49:29.847Z,9.50
2023-05-24T05:50:31.699Z,9.50
2023-05-24T05:51:33.469Z,9.50
2023-05-24T05:52:35.368Z,9.50
2023-05-24T05:53:37.209Z,9.60
2023-05-24T05:54:38.990Z,9.60
2023-05-24T05:55:40.915Z,9.60
2023-05-24T05:56:48.084Z,9.60
2023-05-24T05:57:50.009Z,9.60
2023-05-24T05:58:51.844Z,9.60
2023-05-24T05:59:53.655Z,9.70
2023-05-24T06:00:55.479Z,9.70
2023-05-24T06:01:57.246Z,9.70
2023-05-24T06:02:59.197Z,9.70
2023-05-24T06:04:01.149Z,9.70
2023-05-24T06:05:03.339Z,9.70
2023-05-24T06:06:05.402Z,9.80
2023-05-24T06:07:07.263Z,9.80
2023-05-24T06:08:09.086Z,9.80
2023-05-24T06:09:11.278Z,9.80
2023-05-24T06:10:14.277Z,9.80
2023-05-24T06:11:16.181Z,9.80
2023-05-24T06:12:18.000Z,9.80
2023-05-24T06:13:19.777Z,9.80
2023-05-24T06:14:22.392Z,9.80
2023-05-24T06:15:24.515Z,9.90
2023-05-24T06:16:26.518Z,9.90
2023-05-24T06:17:29.150Z,9.90
2023-05-24T06:18:32.527Z,9.90
2023-05-24T06:19:34.378Z,9.90
2023-05-24T06:20:37.088Z,9.90
2023-05-24T06:21:41.053Z,9.90
2023-05-24T06:22:43.746Z,9.90
2023-05-24T06:23:45.582Z,10.00
2023-05-24T06:24:47.615Z,10.00
2023-05-24T06:25:49.554Z,10.00
2023-05-24T06:26:52.625Z,10.10
2023-05-24T06:27:54.429Z,10.10
2023-05-24T06:28:56.256Z,10.10
2023-05-24T06:29:58.096Z,10.10
2023-05-24T06:30:59.941Z,10.10
2023-05-24T06:32:01.848Z,10.10
2023-05-24T06:33:03.846Z,10.10
2023-05-24T06:34:05.895Z,10.20
2023-05-24T06:35:08.831Z,10.30
2023-05-24T06:36:10.763Z,10.30
2023-05-24T06:37:15.169Z,10.30
2023-05-24T06:38:17.872Z,10.30
2023-05-24T06:39:19.704Z,10.30
2023-05-24T06:40:21.479Z,10.40
2023-05-24T06:41:23.803Z,10.40
2023-05-24T06:42:25.623Z,10.40
2023-05-24T06:43:27.463Z,10.40
2023-05-24T06:44:34.308Z,10.40
2023-05-24T06:45:37.312Z,10.40
2023-05-24T06:46:39.616Z,10.50
2023-05-24T06:47:41.740Z,10.40
2023-05-24T06:48:43.792Z,10.50
2023-05-24T06:49:45.978Z,10.50
2023-05-24T06:50:48.123Z,10.50
2023-05-24T06:51:50.023Z,10.50
2023-05-24T06:52:51.805Z,10.50
2023-05-24T06:53:53.999Z,10.60
2023-05-24T06:54:56.288Z,10.60
2023-05-24T06:55:58.061Z,10.60
2023-05-24T06:57:00.121Z,10.50
2023-05-24T06:58:02.215Z,10.50
2023-05-24T06:59:04.023Z,10.50
2023-05-24T07:00:12.615Z,10.50
2023-05-24T07:01:15.311Z,10.60
2023-05-24T07:02:17.366Z,10.60
2023-05-24T07:03:19.374Z,10.70
2023-05-24T07:04:21.248Z,10.70
2023-05-24T07:05:23.439Z,10.70
2023-05-24T07:06:25.226Z,10.70
2023-05-24T07:07:27.060Z,10.70
2023-05-24T07:08:28.848Z,10.70
2023-05-24T07:09:30.660Z,10.60
2023-05-24T07:10:32.557Z,10.40
2023-05-24T07:11:34.420Z,10.50
2023-05-24T07:12:36.579Z,10.50
2023-05-24T07:13:38.700Z,10.60
2023-05-24T07:14:40.506Z,10.70
2023-05-24T07:15:42.671Z,10.70
2023-05-24T07:16:44.479Z,10.70
2023-05-24T07:17:46.442Z,10.80
2023-05-24T07:18:48.285Z,10.80
2023-05-24T07:19:50.098Z,10.90
2023-05-24T07:20:52.035Z,11.00
2023-05-24T07:21:53.835Z,11.00
2023-05-24T07:22:55.963Z,11.00
2023-05-24T07:23:57.765Z,11.00
2023-05-24T07:24:59.548Z,11.00
2023-05-24T07:26:01.340Z,10.90
2023-05-24T07:27:03.334Z,10.90
2023-05-24T07:28:05.727Z,10.80
2023-05-24T07:29:07.538Z,10.80
2023-05-24T07:30:23.623Z,10.80
2023-05-24T07:31:27.367Z,10.70
2023-05-24T07:32:29.509Z,10.70
2023-05-24T07:33:31.464Z,10.60
2023-05-24T07:34:33.475Z,10.60
2023-05-24T07:35:35.291Z,10.60
2023-05-24T07:36:37.131Z,10.60
2023-05-24T07:37:39.737Z,10.70
2023-05-24T07:38:41.520Z,10.70
2023-05-24T07:39:43.597Z,10.70
2023-05-24T07:40:45.647Z,10.80
2023-05-24T07:41:47.928Z,10.90
2023-05-24T07:42:49.771Z,10.90
2023-05-24T07:43:51.593Z,11.00
2023-05-24T07:44:53.374Z,11.00
2023-05-24T07:45:55.701Z,11.00
2023-05-24T07:46:57.607Z,11.00
2023-05-24T07:47:59.485Z,11.00
2023-05-24T07:49:01.363Z,11.00
2023-05-24T07:50:03.703Z,11.10
2023-05-24T07:51:06.166Z,11.10
2023-05-24T07:52:08.012Z,11.20
2023-05-24T07:53:09.880Z,11.20
2023-05-24T07:54:11.727Z,11.20
2023-05-24T07:55:14.533Z,11.10
2023-05-24T07:56:16.333Z,11.10
2023-05-24T07:57:19.693Z,11.10
2023-05-24T07:58:21.475Z,11.10
2023-05-24T07:59:23.890Z,11.00
2023-05-24T08:00:25.671Z,11.00
2023-05-24T08:01:28.870Z,10.90
2023-05-24T08:02:31.359Z,10.90
2023-05-24T08:03:34.947Z,10.90
2023-05-24T08:04:37.125Z,10.90
2023-05-24T08:05:39.182Z,10.90
2023-05-24T08:06:41.764Z,10.90
2023-05-24T08:07:43.643Z,11.00
2023-05-24T08:08:45.982Z,11.00
2023-05-24T08:09:47.778Z,11.10
2023-05-24T08:10:49.546Z,11.10
2023-05-24T08:11:51.311Z,11.10
2023-05-24T08:12:55.096Z,11.10
2023-05-24T08:13:57.018Z,11.10
2023-05-24T08:14:58.985Z,11.10
2023-05-24T08:16:00.908Z,11.00
2023-05-24T08:17:02.820Z,11.00
2023-05-24T08:18:05.358Z,11.10
2023-05-24T08:19:07.190Z,11.10
2023-05-24T08:20:10.002Z,11.10
2023-05-24T08:21:12.124Z,11.20
2023-05-24T08:22:14.672Z,11.00
2023-05-24T08:23:16.523Z,11.00
2023-05-24T08:24:18.302Z,11.00
2023-05-24T08:25:20.965Z,11.00
2023-05-24T08:26:24.215Z,11.00
2023-05-24T08:27:28.727Z,11.00
2023-05-24T08:28:30.681Z,11.10
2023-05-24T08:29:32.541Z,11.00
2023-05-24T08:30:35.284Z,10.90
2023-05-24T08:31:38.284Z,11.00
2023-05-24T08:32:40.574Z,10.90
2023-05-24T08:33:42.988Z,10.90
2023-05-24T08:34:45.214Z,11.00
2023-05-24T08:35:47.074Z,11.10
2023-05-24T08:36:49.213Z,11.20
2023-05-24T08:37:51.108Z,11.20
2023-05-24T08:38:52.877Z,11.20
2023-05-24T08:39:54.678Z,11.20
2023-05-24T08:40:56.756Z,11.20
2023-05-24T08:43:12.035Z,11.30
2023-05-24T08:44:14.446Z,11.30
2023-05-24T08:45:17.316Z,11.40
2023-05-24T08:46:19.402Z,11.50
2023-05-24T08:47:24.723Z,11.60
2023-05-24T08:48:28.460Z,11.60
2023-05-24T08:49:33.543Z,11.60
2023-05-24T08:50:35.910Z,11.70
2023-05-24T08:51:39.676Z,11.70
2023-05-24T08:52:43.644Z,11.70
2023-05-24T08:53:49.676Z,11.70
2023-05-24T08:54:53.188Z,11.80
2023-05-24T08:55:56.175Z,11.80
2023-05-24T08:56:59.312Z,11.80
2023-05-24T08:58:01.304Z,11.80
2023-05-24T08:59:03.098Z,11.80
2023-05-24T09:00:11.355Z,11.70
2023-05-24T09:01:17.548Z,11.70
2023-05-24T09:02:19.713Z,11.60
2023-05-24T09:03:23.148Z,11.50
2023-05-24T09:04:26.886Z,11.50
2023-05-24T09:05:30.293Z,11.50
2023-05-24T09:06:32.696Z,11.50
2023-05-24T09:07:34.638Z,11.50
2023-05-24T09:08:38.523Z,11.50
2023-05-24T09:09:47.115Z,11.60
2023-05-24T09:10:55.266Z,11.70
2023-05-24T09:12:02.149Z,11.70
2023-05-24T09:13:07.073Z,11.80
2023-05-24T09:14:09.027Z,11.90
2023-05-24T09:15:11.071Z,12.00
2023-05-24T09:16:12.911Z,12.00
2023-05-24T09:17:17.732Z,12.00
2023-05-24T09:18:19.728Z,12.00
2023-05-24T09:19:21.632Z,12.00
2023-05-24T09:20:23.589Z,12.00
2023-05-24T09:21:25.605Z,12.00
2023-05-24T09:22:30.539Z,12.10
2023-05-24T09:23:32.691Z,12.10
2023-05-24T09:24:42.023Z,12.10
2023-05-24T09:25:46.108Z,12.20
2023-05-24T09:26:50.943Z,12.20
2023-05-24T09:27:53.770Z,12.20
2023-05-24T09:28:57.449Z,12.10
2023-05-24T09:29:59.298Z,12.20
2023-05-24T09:31:06.363Z,12.30
2023-05-24T09:32:09.465Z,12.30
2023-05-24T09:33:13.370Z,12.30
2023-05-24T09:34:16.748Z,12.40
2023-05-24T09:35:18.867Z,12.30
2023-05-24T09:36:20.922Z,12.30
2023-05-24T09:37:28.850Z,12.40
2023-05-24T09:38:33.426Z,12.50
2023-05-24T09:39:35.855Z,12.70
2023-05-24T09:40:39.278Z,12.80
2023-05-24T09:41:44.769Z,12.80
2023-05-24T09:42:47.162Z,12.80
2023-05-24T09:43:50.190Z,12.80
2023-05-24T09:45:07.678Z,12.80
2023-05-24T09:46:09.549Z,12.70
2023-05-24T09:47:12.687Z,12.50
2023-05-24T09:48:16.684Z,12.60
2023-05-24T09:49:21.450Z,12.70
2023-05-24T09:50:23.266Z,12.80
2023-05-24T09:51:25.511Z,12.80
2023-05-24T09:52:28.329Z,12.80
2023-05-24T09:53:30.857Z,12.80
2023-05-24T09:54:33.367Z,12.70
2023-05-24T09:55:38.927Z,12.50
2023-05-24T09:56:40.801Z,12.50
2023-05-24T09:57:44.478Z,12.50
2023-05-24T09:58:46.281Z,12.60
2023-05-24T09:59:49.044Z,12.70
2023-05-24T10:00:50.962Z,12.70
2023-05-24T10:02:06.997Z,12.80
2023-05-24T10:03:13.176Z,13.00
2023-05-24T10:04:15.616Z,13.20
2023-05-24T10:05:17.536Z,13.20
2023-05-24T10:06:19.811Z,13.20
2023-05-24T10:07:21.707Z,13.10
2023-05-24T10:08:24.116Z,13.10
2023-05-24T10:09:33.670Z,13.20
2023-05-24T10:10:36.146Z,13.20
2023-05-24T10:11:38.022Z,13.20
2023-05-24T10:12:44.049Z,13.30
2023-05-24T10:13:46.349Z,13.40
2023-05-24T10:14:49.559Z,13.50
2023-05-24T10:15:51.467Z,13.70
2023-05-24T10:16:54.244Z,13.90
2023-05-24T10:17:57.244Z,14.10
2023-05-24T10:18:59.508Z,14.10
2023-05-24T10:20:02.229Z,14.00
2023-05-24T10:21:08.522Z,14.00
2023-05-24T10:22:11.310Z,13.90
2023-05-24T10:23:19.503Z,13.80
2023-05-24T10:24:25.870Z,13.70
2023-05-24T10:25:29.186Z,13.70
2023-05-24T10:26:33.742Z,13.70
2023-05-24T10:27:36.528Z,13.70
2023-05-24T10:28:48.862Z,13.70
2023-05-24T10:30:26.122Z,13.70
2023-05-24T10:31:39.417Z,13.60
2023-05-24T10:32:44.703Z,13.40
2023-05-24T10:33:48.599Z,13.40
2023-05-24T10:34:51.734Z,13.50
2023-05-24T10:35:54.166Z,13.60
2023-05-24T10:36:57.443Z,13.60
2023-05-24T10:37:59.665Z,13.80
2023-05-24T10:39:01.930Z,14.00
2023-05-24T10:40:06.634Z,14.20
2023-05-24T10:41:09.037Z,14.10
2023-05-24T10:42:13.215Z,14.40
2023-05-24T10:43:17.546Z,14.50
2023-05-24T10:44:20.412Z,14.50
2023-05-24T10:45:24.991Z,14.50
2023-05-24T10:46:26.913Z,14.50
2023-05-24T10:47:28.813Z,14.50
2023-05-24T10:48:31.278Z,14.50
2023-05-24T10:49:33.115Z,14.50
2023-05-24T10:50:34.868Z,14.50
2023-05-24T10:51:39.844Z,14.60
2023-05-24T10:52:41.806Z,14.60
2023-05-24T10:53:43.601Z,14.60
2023-05-24T10:55:05.309Z,14.50
2023-05-24T10:56:09.698Z,14.30
2023-05-24T10:57:11.991Z,14.20
2023-05-24T10:58:14.207Z,14.30
2023-05-24T10:59:39.726Z,14.40
2023-05-24T11:00:44.477Z,14.50
2023-05-24T11:01:55.787Z,14.30
2023-05-24T11:03:10.918Z,14.30
2023-05-24T11:04:18.286Z,14.30
2023-05-24T11:05:20.206Z,14.40
2023-05-24T11:06:50.955Z,14.40
2023-05-24T11:07:59.749Z,14.40
2023-05-24T11:09:01.541Z,14.50
2023-05-24T11:10:09.627Z,14.30
2023-05-24T11:11:24.700Z,14.30
2023-05-24T11:12:34.632Z,14.20
2023-05-24T11:13:41.071Z,14.20
2023-05-24T11:14:48.973Z,14.10
2023-05-24T11:15:51.891Z,14.10
2023-05-24T11:16:53.763Z,14.00
2023-05-24T11:18:14.052Z,14.00
2023-05-24T11:19:36.372Z,14.00
2023-05-24T11:20:38.529Z,13.80
2023-05-24T11:21:43.486Z,13.70
2023-05-24T11:22:45.428Z,13.70
2023-05-24T11:23:49.224Z,13.80
2023-05-24T11:24:53.056Z,13.80
2023-05-24T11:25:57.213Z,13.90
2023-05-24T11:27:02.439Z,14.10
2023-05-24T11:28:09.579Z,14.20
2023-05-24T11:29:17.585Z,14.30
2023-05-24T11:30:20.664Z,14.30
2023-05-24T11:31:27.954Z,14.40
2023-05-24T11:32:29.833Z,14.60
2023-05-24T11:33:32.131Z,14.70
2023-05-24T11:34:34.379Z,14.80
2023-05-24T11:35:37.313Z,14.90
2023-05-24T11:36:39.683Z,14.90
2023-05-24T11:37:46.727Z,15.00
2023-05-24T11:38:49.992Z,15.20
2023-05-24T11:39:53.132Z,15.30
2023-05-24T11:40:55.047Z,15.40
2023-05-24T11:41:57.036Z,15.50
2023-05-24T11:42:58.971Z,15.60
2023-05-24T11:44:00.804Z,15.60
2023-05-24T11:45:02.704Z,15.70
2023-05-24T11:46:04.716Z,15.70
2023-05-24T11:47:08.474Z,15.80
2023-05-24T11:48:11.347Z,15.90
2023-05-24T11:49:15.293Z,16.00
2023-05-24T11:50:25.353Z,16.10
2023-05-24T11:51:34.421Z,16.20
2023-05-24T11:52:41.035Z,16.30
2023-05-24T11:53:42.823Z,16.40
2023-05-24T11:54:44.989Z,16.30
2023-05-24T11:55:46.931Z,16.10
2023-05-24T11:56:48.781Z,16.00
2023-05-24T11:57:57.750Z,15.90
2023-05-24T11:59:15.585Z,15.90
2023-05-24T12:00:25.090Z,16.00
2023-05-24T12:01:27.482Z,16.10
2023-05-24T12:02:32.560Z,16.10
2023-05-24T12:03:34.645Z,16.00
2023-05-24T12:04:36.681Z,15.90
2023-05-24T12:05:38.600Z,15.90
2023-05-24T12:06:42.825Z,15.80
2023-05-24T12:07:48.884Z,15.80
2023-05-24T12:08:50.833Z,15.80
2023-05-24T12:09:52.766Z,15.80
2023-05-24T12:10:54.713Z,15.80
2023-05-24T12:11:58.457Z,15.90
2023-05-24T12:13:00.782Z,15.90
2023-05-24T12:14:02.949Z,16.00
2023-05-24T12:15:08.027Z,16.10
2023-05-24T12:16:13.389Z,16.00
2023-05-24T12:17:18.496Z,16.10
2023-05-24T12:18:21.663Z,16.20
2023-05-24T12:19:33.658Z,16.30
2023-05-24T12:20:38.213Z,16.50
2023-05-24T12:21:43.254Z,16.70
2023-05-24T12:22:50.807Z,16.60
2023-05-24T12:23:52.649Z,16.70
2023-05-24T12:24:54.465Z,16.60
2023-05-24T12:26:02.647Z,16.50
2023-05-24T12:27:08.828Z,16.50
2023-05-24T12:28:13.262Z,16.50
2023-05-24T12:29:15.482Z,16.60
2023-05-24T12:30:21.421Z,16.70
2023-05-24T12:31:23.326Z,16.90
2023-05-24T12:32:25.770Z,16.90
2023-05-24T12:33:28.329Z,16.70
2023-05-24T12:34:30.322Z,16.60
2023-05-24T12:35:32.193Z,16.60
2023-05-24T12:36:36.657Z,16.50
2023-05-24T12:37:39.653Z,16.50
2023-05-24T12:38:41.527Z,16.30
2023-05-24T12:39:44.489Z,16.10
2023-05-24T12:40:57.058Z,16.10
2023-05-24T12:42:12.028Z,16.10
2023-05-24T12:43:16.108Z,16.00
2023-05-24T12:44:19.395Z,16.10
2023-05-24T12:45:25.796Z,16.20
2023-05-24T12:46:27.875Z,16.30
2023-05-24T12:47:29.848Z,16.30
2023-05-24T12:48:31.792Z,16.40
2023-05-24T12:49:34.091Z,16.70
2023-05-24T12:50:35.993Z,16.90
2023-05-24T12:51:37.813Z,17.00
2023-05-24T12:52:39.720Z,16.90
2023-05-24T12:53:43.269Z,17.00
2023-05-24T12:54:45.067Z,17.20
2023-05-24T12:55:46.870Z,17.30
2023-05-24T12:56:48.949Z,17.30
2023-05-24T12:57:53.150Z,17.40
2023-05-24T12:58:55.780Z,17.20
2023-05-24T12:59:57.960Z,17.20
2023-05-24T13:00:59.780Z,17.30
2023-05-24T13:02:02.041Z,17.40
2023-05-24T13:03:04.142Z,17.40
2023-05-24T13:04:06.177Z,17.50
2023-05-24T13:05:08.691Z,17.40
2023-05-24T13:06:11.159Z,17.50
2023-05-24T13:07:13.374Z,17.50
2023-05-24T13:08:16.297Z,17.40
2023-05-24T13:09:19.308Z,17.20
2023-05-24T13:10:21.308Z,17.20
2023-05-24T13:11:25.194Z,17.30
2023-05-24T13:12:30.301Z,17.20
2023-05-24T13:13:32.621Z,17.20
2023-05-24T13:14:34.577Z,17.10
2023-05-24T13:15:38.009Z,17.00
2023-05-24T13:16:40.011Z,17.00
2023-05-24T13:17:42.726Z,17.00
2023-05-24T13:18:46.291Z,16.90
2023-05-24T13:19:48.304Z,16.70
2023-05-24T13:20:50.930Z,16.50
2023-05-24T13:21:53.142Z,16.40
2023-05-24T13:22:55.027Z,16.30
2023-05-24T13:23:56.885Z,16.30
2023-05-24T13:24:58.683Z,16.30
2023-05-24T13:26:00.666Z,16.20
2023-05-24T13:27:03.510Z,16.20
2023-05-24T13:28:05.462Z,16.20
2023-05-24T13:29:32.402Z,16.30
2023-05-24T13:30:30.020Z,16.20
2023-05-24T13:31:32.210Z,16.10
2023-05-24T13:32:34.315Z,16.10
2023-05-24T13:33:36.119Z,16.10
2023-05-24T13:34:38.080Z,16.20
2023-05-24T13:35:40.046Z,16.30
2023-05-24T13:36:42.767Z,16.30
2023-05-24T13:37:44.602Z,16.50
2023-05-24T13:38:46.466Z,16.60
2023-05-24T13:39:49.056Z,16.60
2023-05-24T13:40:51.536Z,16.60
2023-05-24T13:41:55.648Z,16.70
2023-05-24T13:42:58.023Z,16.80
2023-05-24T13:43:59.810Z,17.00
2023-05-24T13:45:03.448Z,17.00
2023-05-24T13:46:05.377Z,17.10
2023-05-24T13:47:08.568Z,17.30
2023-05-24T13:48:10.690Z,17.10
2023-05-24T13:49:12.821Z,17.20
2023-05-24T13:50:15.000Z,17.00
2023-05-24T13:51:18.762Z,17.10